createdAt,value
2023-01-13T05:15:18.821Z,9.18
2023-01-13T05:16:18.839Z,9.16
2023-01-13T05:17:18.781Z,9.16
2023-01-13T05:18:18.785Z,9.16
2023-01-13T05:19:18.771Z,9.21
2023-01-13T05:20:18.742Z,9.23
2023-01-13T05:21:18.740Z,9.20
2023-01-13T05:22:18.719Z,9.18
2023-01-13T05:23:18.719Z,9.15
2023-01-13T05:24:18.692Z,9.13
2023-01-13T05:25:18.695Z,9.13
2023-01-13T05:26:18.663Z,9.13
2023-01-13T05:27:18.650Z,9.15
2023-01-13T05:28:18.654Z,9.15
2023-01-13T05:29:18.631Z,9.13
2023-01-13T05:30:18.609Z,9.09
2023-01-13T05:31:18.687Z,9.06
2023-01-13T05:32:18.595Z,9.04
2023-01-13T05:33:18.586Z,9.02
2023-01-13T05:34:18.564Z,9.02
2023-01-13T05:35:18.567Z,9.04
2023-01-13T05:36:18.540Z,9.01
2023-01-13T05:37:18.528Z,8.99
2023-01-13T05:38:18.671Z,8.97
2023-01-13T05:39:18.499Z,8.96
2023-01-13T05:40:18.508Z,8.94
2023-01-13T05:41:18.481Z,8.94
2023-01-13T05:42:18.453Z,8.94
2023-01-13T05:43:18.463Z,8.93
2023-01-13T05:44:18.457Z,8.94
2023-01-13T05:45:18.439Z,8.94
2023-01-13T05:46:18.453Z,8.97
2023-01-13T05:47:18.397Z,9.02
2023-01-13T05:48:18.429Z,9.04
2023-01-13T05:49:18.377Z,9.06
2023-01-13T05:50:18.370Z,9.04
2023-01-13T05:51:18.358Z,9.02
2023-01-13T05:52:18.327Z,9.01
2023-01-13T05:53:18.361Z,9.01
2023-01-13T05:54:18.308Z,8.97
2023-01-13T05:55:18.307Z,8.96
2023-01-13T05:56:18.284Z,8.93
2023-01-13T05:57:18.258Z,8.93
2023-01-13T05:58:18.255Z,8.88
2023-01-13T05:59:18.234Z,8.84
2023-01-13T06:00:18.222Z,8.83
2023-01-13T06:01:18.237Z,8.84
2023-01-13T06:02:18.202Z,8.86
2023-01-13T06:03:18.285Z,8.83
2023-01-13T06:04:18.201Z,8.79
2023-01-13T06:05:18.163Z,8.75
2023-01-13T06:06:18.161Z,8.75
2023-01-13T06:07:18.141Z,8.73
2023-01-13T06:08:18.125Z,8.72
2023-01-13T06:09:18.106Z,8.71
2023-01-13T06:10:18.099Z,8.71
2023-01-13T06:11:18.079Z,8.69
2023-01-13T06:12:18.075Z,8.72
2023-01-13T06:13:18.059Z,8.75
2023-01-13T06:14:18.034Z,8.78
2023-01-13T06:15:18.033Z,8.79
2023-01-13T06:16:18.034Z,8.83
2023-01-13T06:17:17.994Z,8.81
2023-01-13T06:18:17.995Z,8.79
2023-01-13T06:19:17.987Z,8.83
2023-01-13T06:20:17.954Z,8.81
2023-01-13T06:21:17.948Z,8.81
2023-01-13T06:22:17.931Z,8.76
2023-01-13T06:23:17.932Z,8.76
2023-01-13T06:24:17.921Z,8.75
2023-01-13T06:25:17.896Z,8.75
2023-01-13T06:26:17.874Z,8.75
2023-01-13T06:27:17.873Z,8.73
2023-01-13T06:28:17.851Z,8.75
2023-01-13T06:29:17.856Z,8.75
2023-01-13T06:30:17.828Z,8.75
2023-01-13T06:31:17.858Z,8.73
2023-01-13T06:32:17.807Z,8.72
2023-01-13T06:33:17.803Z,8.73
2023-01-13T06:34:17.793Z,8.73
2023-01-13T06:35:17.764Z,8.75
2023-01-13T06:36:17.754Z,8.76
2023-01-13T06:37:17.732Z,8.75
2023-01-13T06:38:17.721Z,8.73
2023-01-13T06:39:17.728Z,8.75
2023-01-13T06:40:17.691Z,8.75
2023-01-13T06:41:17.701Z,8.79
2023-01-13T06:42:17.662Z,8.81
2023-01-13T06:43:17.872Z,8.81
2023-01-13T06:44:17.652Z,8.78
2023-01-13T06:45:17.631Z,8.83
2023-01-13T06:46:17.677Z,8.83
2023-01-13T06:47:17.602Z,8.83
2023-01-13T06:48:17.787Z,8.78
2023-01-13T06:49:17.590Z,8.79
2023-01-13T06:50:17.573Z,8.76
2023-01-13T06:51:17.552Z,8.73
2023-01-13T06:52:17.539Z,8.75
2023-01-13T06:53:17.534Z,8.75
2023-01-13T06:54:17.520Z,8.73
2023-01-13T06:55:17.520Z,8.72
2023-01-13T06:56:17.490Z,8.73
2023-01-13T06:57:17.467Z,8.73
2023-01-13T06:58:17.470Z,8.72
2023-01-13T06:59:17.470Z,8.75
2023-01-13T07:00:17.658Z,8.75
2023-01-13T07:01:17.540Z,8.73
2023-01-13T07:02:17.513Z,8.72
2023-01-13T07:03:17.393Z,8.72
2023-01-13T07:04:17.406Z,8.71
2023-01-13T07:05:17.375Z,8.69
2023-01-13T07:06:17.356Z,8.68
2023-01-13T07:07:17.352Z,8.68
2023-01-13T07:08:17.330Z,8.63
2023-01-13T07:09:17.379Z,8.60
2023-01-13T07:10:17.307Z,8.55
2023-01-13T07:11:17.292Z,8.54
2023-01-13T07:12:17.284Z,8.55
2023-01-13T07:13:17.257Z,8.54
2023-01-13T07:14:17.268Z,8.57
2023-01-13T07:15:17.227Z,8.54
2023-01-13T07:16:17.278Z,8.55
2023-01-13T07:17:17.207Z,8.60
2023-01-13T07:18:17.197Z,8.65
2023-01-13T07:19:17.196Z,8.66
2023-01-13T07:20:17.166Z,8.66
2023-01-13T07:21:17.158Z,8.65
2023-01-13T07:22:17.144Z,8.63
2023-01-13T07:23:17.124Z,8.65
2023-01-13T07:24:17.135Z,8.63
2023-01-13T07:25:17.109Z,8.62
2023-01-13T07:26:17.088Z,8.62
2023-01-13T07:27:17.106Z,8.62
2023-01-13T07:28:17.069Z,8.63
2023-01-13T07:29:17.053Z,8.62
2023-01-13T07:30:17.046Z,8.62
2023-01-13T07:31:17.067Z,8.63
2023-01-13T07:32:17.013Z,8.68
2023-01-13T07:33:16.994Z,8.69
2023-01-13T07:34:16.998Z,8.69
2023-01-13T07:35:16.962Z,8.69
2023-01-13T07:36:16.956Z,8.68
2023-01-13T07:37:16.941Z,8.66
2023-01-13T07:38:16.931Z,8.68
2023-01-13T07:39:16.952Z,8.66
2023-01-13T07:40:16.903Z,8.71
2023-01-13T07:41:16.893Z,8.72
2023-01-13T07:42:16.892Z,8.72
2023-01-13T07:43:16.879Z,8.71
2023-01-13T07:44:16.861Z,8.71
2023-01-13T07:45:16.845Z,8.69
2023-01-13T07:46:16.892Z,8.73
2023-01-13T07:47:16.809Z,8.72
2023-01-13T07:48:16.844Z,8.71
2023-01-13T07:49:16.811Z,8.72
2023-01-13T07:50:16.788Z,8.71
2023-01-13T07:51:16.769Z,8.73
2023-01-13T07:52:16.760Z,8.75
2023-01-13T07:53:16.733Z,8.75
2023-01-13T07:54:17.195Z,8.76
2023-01-13T07:55:16.700Z,8.76
2023-01-13T07:56:16.703Z,8.76
2023-01-13T07:57:16.684Z,8.76
2023-01-13T07:58:16.663Z,8.73
2023-01-13T07:59:16.658Z,8.75
2023-01-13T08:00:16.653Z,8.76
2023-01-13T08:01:16.779Z,8.75
2023-01-13T08:02:16.843Z,8.75
2023-01-13T08:03:16.601Z,8.76
2023-01-13T08:04:16.601Z,8.76
2023-01-13T08:05:16.580Z,8.76
2023-01-13T08:06:16.599Z,8.78
2023-01-13T08:07:16.551Z,8.76
2023-01-13T08:08:16.542Z,8.76
2023-01-13T08:09:16.579Z,8.78
2023-01-13T08:10:16.509Z,8.79
2023-01-13T08:11:16.498Z,8.78
2023-01-13T08:12:16.491Z,8.78
2023-01-13T08:13:16.469Z,8.78
2023-01-13T08:14:16.486Z,8.81
2023-01-13T08:15:16.448Z,8.83
2023-01-13T08:16:16.462Z,8.83
2023-01-13T08:17:16.464Z,8.83
2023-01-13T08:18:16.499Z,8.81
2023-01-13T08:19:16.474Z,8.79
2023-01-13T08:20:16.437Z,8.81
2023-01-13T08:21:16.388Z,8.81
2023-01-13T08:22:16.392Z,8.84
2023-01-13T08:23:16.368Z,8.83
2023-01-13T08:24:16.339Z,8.84
2023-01-13T08:25:16.432Z,8.86
2023-01-13T08:26:16.339Z,8.84
2023-01-13T08:27:16.290Z,8.86
2023-01-13T08:28:16.268Z,8.84
2023-01-13T08:29:16.267Z,8.86
2023-01-13T08:30:16.281Z,8.84
2023-01-13T08:31:16.831Z,8.84
2023-01-13T08:32:16.214Z,8.83
2023-01-13T08:33:16.207Z,8.83
2023-01-13T08:34:16.197Z,8.83
2023-01-13T08:35:16.195Z,8.83
2023-01-13T08:36:16.180Z,8.84
2023-01-13T08:37:16.186Z,8.86
2023-01-13T08:38:16.135Z,8.86
2023-01-13T08:39:16.138Z,8.86
2023-01-13T08:40:16.125Z,8.88
2023-01-13T08:41:16.109Z,8.88
2023-01-13T08:42:16.076Z,8.87
2023-01-13T08:43:16.087Z,8.88
2023-01-13T08:44:16.084Z,8.88
2023-01-13T08:45:16.055Z,8.88
2023-01-13T08:46:16.152Z,8.88
2023-01-13T08:47:16.054Z,8.88
2023-01-13T08:48:16.006Z,8.88
2023-01-13T08:49:16.991Z,8.90
2023-01-13T08:50:16.004Z,8.90
2023-01-13T08:51:15.964Z,8.94
2023-01-13T08:52:15.956Z,8.94
2023-01-13T08:53:15.946Z,8.91
2023-01-13T08:54:15.925Z,8.91
2023-01-13T08:55:15.941Z,8.93
2023-01-13T08:56:15.901Z,8.93
2023-01-13T08:57:15.912Z,8.94
2023-01-13T08:58:16.349Z,8.94
2023-01-13T08:59:15.871Z,8.94
2023-01-13T09:00:15.884Z,8.94
2023-01-13T09:01:15.926Z,8.94
2023-01-13T09:02:16.023Z,8.94
2023-01-13T09:03:15.822Z,8.96
2023-01-13T09:04:15.847Z,8.99
2023-01-13T09:05:17.763Z,9.01
2023-01-13T09:06:15.790Z,8.99
2023-01-13T09:07:15.799Z,8.97
2023-01-13T09:08:15.749Z,8.97
2023-01-13T09:09:15.731Z,8.97
2023-01-13T09:10:15.721Z,8.97
2023-01-13T09:11:15.702Z,8.97
2023-01-13T09:12:15.688Z,8.96
2023-01-13T09:13:15.704Z,8.94
2023-01-13T09:14:15.652Z,8.96
2023-01-13T09:15:15.683Z,8.96
2023-01-13T09:16:15.711Z,8.94
2023-01-13T09:17:15.627Z,8.96
2023-01-13T09:18:15.775Z,8.97
2023-01-13T09:19:15.603Z,9.01
2023-01-13T09:20:15.586Z,9.02
2023-01-13T09:21:15.579Z,9.01
2023-01-13T09:22:15.563Z,8.99
2023-01-13T09:23:15.537Z,9.01
2023-01-13T09:24:15.530Z,9.04
2023-01-13T09:25:15.527Z,9.05
2023-01-13T09:26:15.499Z,9.09
2023-01-13T09:27:15.492Z,9.10
2023-01-13T09:28:15.572Z,9.09
2023-01-13T09:29:15.466Z,9.10
2023-01-13T09:30:15.468Z,9.12
2023-01-13T09:31:15.484Z,9.15
2023-01-13T09:32:15.417Z,9.13
2023-01-13T09:33:15.408Z,9.15
2023-01-13T09:34:15.395Z,9.15
2023-01-13T09:35:15.388Z,9.13
2023-01-13T09:36:15.371Z,9.13
2023-01-13T09:37:15.377Z,9.15
2023-01-13T09:38:15.341Z,9.16
2023-01-13T09:39:15.353Z,9.18
2023-01-13T09:40:15.324Z,9.21
2023-01-13T09:41:15.306Z,9.27
2023-01-13T09:42:15.286Z,9.28
2023-01-13T09:43:15.281Z,9.42
2023-01-13T09:44:15.267Z,9.73
2023-01-13T09:45:15.257Z,9.70
2023-01-13T09:46:15.267Z,9.70
2023-01-13T09:47:15.218Z,10.28
2023-01-13T09:48:15.207Z,10.63
2023-01-13T09:49:15.196Z,10.80
2023-01-13T09:50:15.199Z,10.68
2023-01-13T09:51:15.192Z,10.58
2023-01-13T09:52:15.206Z,10.55
2023-01-13T09:53:15.157Z,10.88
2023-01-13T09:54:15.128Z,10.42
2023-01-13T09:55:15.138Z,10.09
2023-01-13T09:56:15.101Z,9.89
2023-01-13T09:57:15.106Z,9.86
2023-01-13T09:58:15.094Z,10.03
2023-01-13T09:59:15.064Z,10.03
2023-01-13T10:00:15.101Z,10.06
2023-01-13T10:01:15.110Z,10.47
2023-01-13T10:02:15.028Z,10.19
2023-01-13T10:03:15.070Z,9.99
2023-01-13T10:04:15.178Z,9.88
2023-01-13T10:05:14.986Z,9.76
2023-01-13T10:06:14.982Z,9.71
2023-01-13T10:07:14.962Z,9.71
2023-01-13T10:08:14.960Z,9.70
2023-01-13T10:09:14.933Z,9.83
2023-01-13T10:10:14.909Z,9.76
2023-01-13T10:11:14.936Z,9.73
2023-01-13T10:12:14.881Z,9.73
2023-01-13T10:13:14.902Z,9.81
2023-01-13T10:14:14.865Z,10.01
2023-01-13T10:15:14.997Z,10.28
2023-01-13T10:16:15.105Z,10.58
2023-01-13T10:17:14.846Z,11.38
2023-01-13T10:18:14.842Z,11.14
2023-01-13T10:19:14.821Z,10.95
2023-01-13T10:20:14.785Z,10.63
2023-01-13T10:21:14.786Z,11.21
2023-01-13T10:22:14.760Z,11.62
2023-01-13T10:23:14.753Z,11.28
2023-01-13T10:24:14.726Z,10.98
2023-01-13T10:25:14.712Z,10.66
2023-01-13T10:26:14.755Z,10.77
2023-01-13T10:27:14.685Z,10.55
2023-01-13T10:28:14.695Z,10.55
2023-01-13T10:29:14.661Z,10.51
2023-01-13T10:30:14.652Z,10.78
2023-01-13T10:31:14.690Z,10.73
2023-01-13T10:32:14.611Z,10.63
2023-01-13T10:33:14.606Z,10.46
2023-01-13T10:34:14.593Z,10.40
2023-01-13T10:35:14.582Z,10.25
2023-01-13T10:36:14.603Z,10.09
2023-01-13T10:37:14.561Z,10.01
2023-01-13T10:38:14.541Z,10.00
2023-01-13T10:39:14.531Z,9.96
2023-01-13T10:40:14.520Z,9.88
2023-01-13T10:41:14.513Z,9.88
2023-01-13T10:42:14.492Z,9.91
2023-01-13T10:43:14.489Z,9.91
2023-01-13T10:44:14.467Z,9.94
2023-01-13T10:45:14.450Z,9.96
2023-01-13T10:46:14.474Z,9.91
2023-01-13T10:47:14.420Z,9.93
2023-01-13T10:48:14.414Z,10.56
2023-01-13T10:49:14.389Z,10.46
2023-01-13T10:50:14.380Z,10.58
2023-01-13T10:51:14.381Z,10.37
2023-01-13T10:52:14.384Z,10.28
2023-01-13T10:53:14.341Z,11.10
2023-01-13T10:54:14.320Z,11.11
2023-01-13T10:55:14.309Z,10.92
2023-01-13T10:56:14.313Z,10.71
2023-01-13T10:57:14.277Z,10.46
2023-01-13T10:58:14.262Z,10.36
2023-01-13T10:59:14.280Z,10.19
2023-01-13T11:00:14.248Z,10.18
2023-01-13T11:01:14.253Z,10.17
2023-01-13T11:02:25.307Z,10.15
2023-01-13T11:03:15.226Z,10.19
2023-01-13T11:04:14.191Z,10.22
2023-01-13T11:05:14.269Z,10.10
2023-01-13T11:06:14.172Z,10.03
2023-01-13T11:07:14.157Z,9.96
2023-01-13T11:08:14.140Z,9.91
2023-01-13T11:09:14.255Z,9.88
2023-01-13T11:10:14.119Z,9.82
2023-01-13T11:11:14.098Z,9.79
2023-01-13T11:12:14.099Z,9.75
2023-01-13T11:13:14.119Z,9.73
2023-01-13T11:14:14.062Z,9.71
2023-01-13T11:15:14.046Z,9.71
2023-01-13T11:16:14.079Z,9.73
2023-01-13T11:17:14.028Z,9.73
2023-01-13T11:18:13.997Z,9.73
2023-01-13T11:19:14.012Z,9.71
2023-01-13T11:20:13.978Z,9.71
2023-01-13T11:21:13.972Z,9.71
2023-01-13T11:22:13.960Z,9.70
2023-01-13T11:23:13.949Z,9.64
2023-01-13T11:24:13.927Z,9.58
2023-01-13T11:25:13.928Z,9.60
2023-01-13T11:26:13.895Z,9.60
2023-01-13T11:27:13.918Z,9.61
2023-01-13T11:28:13.875Z,9.63
2023-01-13T11:29:13.873Z,9.66
2023-01-13T11:30:13.866Z,9.66
2023-01-13T11:31:13.899Z,9.66
2023-01-13T11:32:13.867Z,9.63
2023-01-13T11:33:13.845Z,9.64
2023-01-13T11:34:13.803Z,9.61
2023-01-13T11:35:13.802Z,9.61
2023-01-13T11:36:13.766Z,9.58
2023-01-13T11:37:13.775Z,9.60
2023-01-13T11:38:13.761Z,9.58
2023-01-13T11:39:13.740Z,9.57
2023-01-13T11:40:13.803Z,9.52
2023-01-13T11:41:13.706Z,9.46
2023-01-13T11:42:13.702Z,9.39
2023-01-13T11:43:13.685Z,9.31
2023-01-13T11:44:13.666Z,9.30
2023-01-13T11:45:13.676Z,9.27
2023-01-13T11:46:13.754Z,9.25
2023-01-13T11:47:13.645Z,9.28
2023-01-13T11:48:13.613Z,9.30
2023-01-13T11:49:13.603Z,9.31
2023-01-13T11:50:13.584Z,9.32
2023-01-13T11:51:13.584Z,9.35
2023-01-13T11:52:13.574Z,9.35
2023-01-13T11:53:13.542Z,9.34
2023-01-13T11:54:13.536Z,9.32
2023-01-13T11:55:13.584Z,9.28
2023-01-13T11:56:13.514Z,9.28
2023-01-13T11:57:13.520Z,9.28
2023-01-13T11:58:13.482Z,9.27
2023-01-13T11:59:13.473Z,9.27
2023-01-13T12:00:13.455Z,9.24
2023-01-13T12:01:13.469Z,9.21
2023-01-13T12:02:13.478Z,9.21
2023-01-13T12:03:13.482Z,9.15
2023-01-13T12:04:13.392Z,9.13
2023-01-13T12:05:13.397Z,9.13
2023-01-13T12:06:13.371Z,9.09
2023-01-13T12:07:13.372Z,9.09
2023-01-13T12:08:13.360Z,9.09
2023-01-13T12:09:13.340Z,9.06
2023-01-13T12:10:13.834Z,9.06
2023-01-13T12:11:13.316Z,9.05
2023-01-13T12:12:13.310Z,9.02
2023-01-13T12:13:13.309Z,9.01
2023-01-13T12:14:13.271Z,8.96
2023-01-13T12:15:13.258Z,8.90
2023-01-13T12:16:13.294Z,8.88
2023-01-13T12:17:13.230Z,8.86
2023-01-13T12:18:13.230Z,8.84
2023-01-13T12:19:13.212Z,8.84
2023-01-13T12:20:13.198Z,8.86
2023-01-13T12:21:13.205Z,8.91
2023-01-13T12:22:13.164Z,9.01
2023-01-13T12:23:13.162Z,9.12
2023-01-13T12:24:13.145Z,9.24
2023-01-13T12:25:13.179Z,9.27
2023-01-13T12:26:13.110Z,9.18
2023-01-13T12:27:13.099Z,9.24
2023-01-13T12:28:13.090Z,9.27
2023-01-13T12:29:13.070Z,9.32
2023-01-13T12:30:13.117Z,9.38
2023-01-13T12:31:13.118Z,9.45
2023-01-13T12:32:13.039Z,9.45
2023-01-13T12:33:13.037Z,9.39
2023-01-13T12:34:13.021Z,9.39
2023-01-13T12:35:12.995Z,9.38
2023-01-13T12:36:12.978Z,9.38
2023-01-13T12:37:12.983Z,9.52
2023-01-13T12:38:12.984Z,9.50
2023-01-13T12:39:12.963Z,9.50
2023-01-13T12:40:12.961Z,9.39
2023-01-13T12:41:12.917Z,9.24
2023-01-13T12:42:12.901Z,9.18
2023-01-13T12:43:12.917Z,9.13
2023-01-13T12:44:12.876Z,9.12
2023-01-13T12:45:12.872Z,9.12
2023-01-13T12:46:12.915Z,9.09
2023-01-13T12:47:12.838Z,9.09
2023-01-13T12:48:12.836Z,9.13
2023-01-13T12:49:12.814Z,9.20
2023-01-13T12:50:12.797Z,9.21
2023-01-13T12:51:12.810Z,9.23
2023-01-13T12:52:12.796Z,9.21
2023-01-13T12:53:12.768Z,9.23
2023-01-13T12:54:12.744Z,9.20
2023-01-13T12:55:12.740Z,9.18
2023-01-13T12:56:12.716Z,9.20
2023-01-13T12:57:12.707Z,9.20
2023-01-13T12:58:12.704Z,9.21
2023-01-13T12:59:12.685Z,9.23
2023-01-13T13:00:12.656Z,9.13
2023-01-13T13:01:12.734Z,9.04
2023-01-13T13:02:13.091Z,9.04
2023-01-13T13:03:12.660Z,9.06
2023-01-13T13:04:12.610Z,9.04
2023-01-13T13:05:12.599Z,9.04
2023-01-13T13:06:12.587Z,9.04
2023-01-13T13:07:12.636Z,9.02
2023-01-13T13:08:12.568Z,9.02
2023-01-13T13:09:12.571Z,9.02
2023-01-13T13:10:12.528Z,9.02
2023-01-13T13:11:12.514Z,8.96
2023-01-13T13:12:12.504Z,8.96
2023-01-13T13:13:12.501Z,8.97
2023-01-13T13:14:12.513Z,9.01
2023-01-13T13:15:12.488Z,9.04
2023-01-13T13:16:13.428Z,9.09
2023-01-13T13:17:12.452Z,9.12
2023-01-13T13:18:12.424Z,9.18
2023-01-13T13:19:12.432Z,9.24
2023-01-13T13:20:12.391Z,9.27
2023-01-13T13:21:12.394Z,9.30
2023-01-13T13:22:12.372Z,9.31
2023-01-13T13:23:12.366Z,9.32
2023-01-13T13:24:12.351Z,9.38
2023-01-13T13:25:12.332Z,9.38
2023-01-13T13:26:12.315Z,9.38
2023-01-13T13:27:12.309Z,9.34
2023-01-13T13:28:12.347Z,9.34
2023-01-13T13:29:12.290Z,9.34
2023-01-13T13:30:12.265Z,9.34
2023-01-13T13:31:12.310Z,9.35
2023-01-13T13:32:12.250Z,9.39
2023-01-13T13:33:12.228Z,9.42
2023-01-13T13:34:12.234Z,9.40
2023-01-13T13:35:12.200Z,9.38
2023-01-13T13:36:12.194Z,9.34
2023-01-13T13:37:12.170Z,9.32
2023-01-13T13:38:12.190Z,9.27
2023-01-13T13:39:12.160Z,9.21
2023-01-13T13:40:12.127Z,9.15
2023-01-13T13:41:12.130Z,9.12
2023-01-13T13:42:12.109Z,9.10
2023-01-13T13:43:12.104Z,9.05
2023-01-13T13:44:12.089Z,9.04
2023-01-13T13:45:12.069Z,8.99
2023-01-13T13:46:12.144Z,9.01
2023-01-13T13:47:12.044Z,9.02
2023-01-13T13:48:12.035Z,9.02
2023-01-13T13:49:12.042Z,9.04
2023-01-13T13:50:12.025Z,9.01
2023-01-13T13:51:12.014Z,9.02
2023-01-13T13:52:12.008Z,9.05
2023-01-13T13:53:11.968Z,9.04
2023-01-13T13:54:11.967Z,9.02
2023-01-13T13:55:11.958Z,8.99
2023-01-13T13:56:11.927Z,8.96
2023-01-13T13:57:11.908Z,8.88
2023-01-13T13:58:11.898Z,8.86
2023-01-13T13:59:11.906Z,8.83
2023-01-13T14:00:11.868Z,8.83
2023-01-13T14:01:11.923Z,8.81
2023-01-13T14:02:11.903Z,8.81
2023-01-13T14:03:11.834Z,8.81
2023-01-13T14:04:11.832Z,8.84
2023-01-13T14:05:11.816Z,8.90
2023-01-13T14:06:11.786Z,8.99
2023-01-13T14:07:11.778Z,8.99
2023-01-13T14:08:11.741Z,8.96
2023-01-13T14:09:11.720Z,8.96
2023-01-13T14:10:11.710Z,8.97
2023-01-13T14:11:11.690Z,8.93
2023-01-13T14:12:11.676Z,8.91
2023-01-13T14:13:11.665Z,8.90
2023-01-13T14:14:11.650Z,8.88
2023-01-13T14:15:11.662Z,8.91
2023-01-13T14:16:11.672Z,8.87
2023-01-13T14:17:11.601Z,8.87
2023-01-13T14:18:11.600Z,8.90
2023-01-13T14:19:11.586Z,8.88
2023-01-13T14:20:11.587Z,8.87
2023-01-13T14:21:11.558Z,8.84
2023-01-13T14:22:11.534Z,8.81
2023-01-13T14:23:11.514Z,8.78
2023-01-13T14:24:11.505Z,8.78
2023-01-13T14:25:11.521Z,8.73
2023-01-13T14:26:11.481Z,8.72
2023-01-13T14:27:11.458Z,8.68
2023-01-13T14:28:11.463Z,8.66
2023-01-13T14:29:11.434Z,8.62
2023-01-13T14:30:11.437Z,8.58
2023-01-13T14:31:11.534Z,8.55
2023-01-13T14:32:11.401Z,8.50
2023-01-13T14:33:11.397Z,8.48
2023-01-13T14:34:32.289Z,8.45
2023-01-13T14:35:12.368Z,8.40
2023-01-13T14:36:11.374Z,8.37
2023-01-13T14:37:11.350Z,8.40
2023-01-13T14:38:11.378Z,8.39
2023-01-13T14:39:11.291Z,8.36
2023-01-13T14:40:11.314Z,8.37
2023-01-13T14:41:11.255Z,8.36
2023-01-13T14:42:11.272Z,8.36
2023-01-13T14:43:11.231Z,8.37
2023-01-13T14:44:11.222Z,8.37
2023-01-13T14:45:11.211Z,8.35
2023-01-13T14:46:11.281Z,8.33
2023-01-13T14:47:11.178Z,8.33
2023-01-13T14:48:11.177Z,8.33
2023-01-13T14:49:11.147Z,8.33
2023-01-13T14:50:11.159Z,8.33
2023-01-13T14:51:11.125Z,8.32
2023-01-13T14:52:11.107Z,8.29
2023-01-13T14:53:11.099Z,8.28
2023-01-13T14:54:11.086Z,8.28
2023-01-13T14:55:11.097Z,8.29
2023-01-13T14:56:11.056Z,8.25
2023-01-13T14:57:11.046Z,8.25
2023-01-13T14:58:11.036Z,8.22
2023-01-13T14:59:11.015Z,8.25
2023-01-13T15:00:11.004Z,8.22
2023-01-13T15:01:11.023Z,8.25
2023-01-13T15:02:11.036Z,8.25
2023-01-13T15:03:11.032Z,8.25
2023-01-13T15:04:10.951Z,8.25
2023-01-13T15:05:10.931Z,8.21
2023-01-13T15:06:10.942Z,8.20
2023-01-13T15:07:10.923Z,8.15
2023-01-13T15:08:10.908Z,8.15
2023-01-13T15:09:10.880Z,8.15
2023-01-13T15:10:10.871Z,8.15
2023-01-13T15:11:10.864Z,8.12
2023-01-13T15:12:10.842Z,8.11
2023-01-13T15:13:10.831Z,8.12
2023-01-13T15:14:10.811Z,8.12
2023-01-13T15:15:10.840Z,8.11
2023-01-13T15:16:10.886Z,8.12
2023-01-13T15:17:10.779Z,8.11
2023-01-13T15:18:10.760Z,8.12
2023-01-13T15:19:10.789Z,8.14
2023-01-13T15:20:10.726Z,8.12
2023-01-13T15:21:10.741Z,8.14
2023-01-13T15:22:10.710Z,8.17
2023-01-13T15:23:10.700Z,8.17
2023-01-13T15:24:10.678Z,8.15
2023-01-13T15:25:10.672Z,8.18
2023-01-13T15:26:10.667Z,8.18
2023-01-13T15:27:10.658Z,8.17
2023-01-13T15:28:10.635Z,8.17
2023-01-13T15:29:10.644Z,8.20
2023-01-13T15:30:10.597Z,8.21
2023-01-13T15:31:10.648Z,8.22
2023-01-13T15:32:10.575Z,8.22
2023-01-13T15:33:10.577Z,8.25
2023-01-13T15:34:10.547Z,8.25
2023-01-13T15:35:10.547Z,8.22
2023-01-13T15:36:10.536Z,8.25
2023-01-13T15:37:10.521Z,8.26
2023-01-13T15:38:10.499Z,8.25
2023-01-13T15:39:10.497Z,8.25
2023-01-13T15:40:10.476Z,8.25
2023-01-13T15:41:10.477Z,8.25
2023-01-13T15:42:10.437Z,8.26
2023-01-13T15:43:10.437Z,8.28
2023-01-13T15:44:10.464Z,8.28
2023-01-13T15:45:10.415Z,8.29
2023-01-13T15:46:10.421Z,8.30
2023-01-13T15:47:10.384Z,8.30
2023-01-13T15:48:10.363Z,8.33
2023-01-13T15:49:10.353Z,8.32
2023-01-13T15:50:10.340Z,8.33
2023-01-13T15:51:10.342Z,8.35
2023-01-13T15:52:11.020Z,8.33
2023-01-13T15:53:10.301Z,8.32
2023-01-13T15:54:10.281Z,8.30
2023-01-13T15:55:10.270Z,8.28
2023-01-13T15:56:10.278Z,8.28
2023-01-13T15:57:10.249Z,8.28
2023-01-13T15:58:10.229Z,8.28
2023-01-13T15:59:10.220Z,8.28
2023-01-13T16:00:10.201Z,8.28
2023-01-13T16:01:10.343Z,8.29
2023-01-13T16:03:02.806Z,8.28
2023-01-13T16:04:02.738Z,8.26
2023-01-13T16:05:02.732Z,8.25
2023-01-13T16:06:02.716Z,8.22
2023-01-13T16:07:02.726Z,8.25
2023-01-13T16:08:02.700Z,8.25
2023-01-13T16:09:03.732Z,8.25
2023-01-13T16:10:02.705Z,8.25
2023-01-13T16:11:02.640Z,8.21
2023-01-13T16:12:02.650Z,8.21
2023-01-13T16:13:02.622Z,8.21
2023-01-13T16:14:02.611Z,8.21
2023-01-13T16:15:02.593Z,8.18
2023-01-13T16:16:02.616Z,8.18
2023-01-13T16:17:02.583Z,8.18
2023-01-13T16:18:02.576Z,8.15
2023-01-13T16:19:02.547Z,8.12
2023-01-13T16:20:02.649Z,8.11
2023-01-13T16:21:02.530Z,8.08
2023-01-13T16:22:02.529Z,8.04
2023-01-13T16:23:02.523Z,8.02
2023-01-13T16:24:02.504Z,7.99
2023-01-13T16:25:02.484Z,7.96
2023-01-13T16:26:02.476Z,7.94
2023-01-13T16:27:02.469Z,7.93
2023-01-13T16:28:02.471Z,7.92
2023-01-13T16:29:02.458Z,7.92
2023-01-13T16:30:02.465Z,7.92
2023-01-13T16:31:02.415Z,7.90
2023-01-13T16:32:02.425Z,7.92
2023-01-13T16:33:02.394Z,7.93
2023-01-13T16:34:02.390Z,7.93
2023-01-13T16:35:02.375Z,7.93
2023-01-13T16:36:10.492Z,7.93
2023-01-13T16:37:03.390Z,7.92
2023-01-13T16:38:02.355Z,7.92
2023-01-13T16:39:02.338Z,7.92
2023-01-13T16:40:02.438Z,7.92
2023-01-13T16:41:02.314Z,7.90
2023-01-13T16:42:02.304Z,7.92
2023-01-13T16:43:02.298Z,7.93
2023-01-13T16:44:02.280Z,7.96
2023-01-13T16:45:02.277Z,7.99
2023-01-13T16:46:02.305Z,8.00
2023-01-13T16:47:02.259Z,8.00
2023-01-13T16:48:02.232Z,8.00
2023-01-13T16:49:02.223Z,7.99
2023-01-13T16:50:02.204Z,7.99
2023-01-13T16:51:02.206Z,8.02
2023-01-13T16:52:02.194Z,8.02
2023-01-13T16:53:02.166Z,8.04
2023-01-13T16:54:02.174Z,8.08
2023-01-13T16:55:02.179Z,8.11
2023-01-13T16:56:02.142Z,8.14
2023-01-13T16:57:02.150Z,8.17
2023-01-13T16:58:02.155Z,8.20
2023-01-13T16:59:02.110Z,8.22
2023-01-13T17:00:02.114Z,8.22
2023-01-13T17:01:02.164Z,8.22
2023-01-13T17:02:02.356Z,8.25
2023-01-13T17:03:02.062Z,8.29
2023-01-13T17:04:02.054Z,8.29
2023-01-13T17:05:02.046Z,8.30
2023-01-13T17:06:02.007Z,8.30
2023-01-13T17:07:02.030Z,8.32
2023-01-13T17:08:02.047Z,8.35
2023-01-13T17:09:01.985Z,8.36
2023-01-13T17:10:01.966Z,8.36
2023-01-13T17:11:01.954Z,8.37
2023-01-13T17:12:01.945Z,8.36
2023-01-13T17:13:14.137Z,8.37
2023-01-13T17:14:18.486Z,8.39
2023-01-13T17:15:02.904Z,8.39
2023-01-13T17:16:01.885Z,8.44
2023-01-13T17:17:01.900Z,8.47
2023-01-13T17:18:01.894Z,8.47
2023-01-13T17:19:01.863Z,8.48
2023-01-13T17:20:01.849Z,8.48
2023-01-13T17:21:01.834Z,8.48
2023-01-13T17:22:01.838Z,8.48
2023-01-13T17:23:01.820Z,8.50
2023-01-13T17:24:01.786Z,8.51
2023-01-13T17:25:01.791Z,8.53
2023-01-13T17:26:01.754Z,8.54
2023-01-13T17:27:01.797Z,8.54
2023-01-13T17:28:01.756Z,8.51
2023-01-13T17:29:01.743Z,8.51
2023-01-13T17:30:01.708Z,8.53
2023-01-13T17:31:01.712Z,8.53
2023-01-13T17:32:01.717Z,8.54
2023-01-13T17:33:01.701Z,8.55
2023-01-13T17:34:01.661Z,8.55
2023-01-13T17:35:01.662Z,8.55
2023-01-13T17:36:01.646Z,8.57
2023-01-13T17:37:01.636Z,8.55
2023-01-13T17:38:01.640Z,8.58
2023-01-13T17:39:01.676Z,8.60
2023-01-13T17:40:01.592Z,8.60
2023-01-13T17:41:01.574Z,8.58
2023-01-13T17:42:01.564Z,8.58
2023-01-13T17:43:01.561Z,8.57
2023-01-13T17:44:01.526Z,8.54
2023-01-13T17:45:01.514Z,8.55
2023-01-13T17:46:01.519Z,8.54
2023-01-13T17:47:01.495Z,8.54
2023-01-13T17:48:01.481Z,8.57
2023-01-13T17:49:01.459Z,8.60
2023-01-13T17:50:01.440Z,8.58
2023-01-13T17:51:01.429Z,8.58
2023-01-13T17:52:01.422Z,8.58
2023-01-13T17:53:01.430Z,8.60
2023-01-13T17:54:01.390Z,8.60
2023-01-13T17:55:01.398Z,8.60
2023-01-13T17:56:01.358Z,8.62
2023-01-13T17:57:01.357Z,8.58
2023-01-13T17:58:01.348Z,8.58
2023-01-13T17:59:01.335Z,8.62
2023-01-13T18:00:01.327Z,8.62
2023-01-13T18:01:01.371Z,8.63
2023-01-13T18:02:01.466Z,8.63
2023-01-13T18:03:01.315Z,8.65
2023-01-13T18:04:01.268Z,8.65
2023-01-13T18:05:01.257Z,8.63
2023-01-13T18:06:01.243Z,8.63
2023-01-13T18:07:01.239Z,8.62
2023-01-13T18:08:01.243Z,8.62
2023-01-13T18:09:01.193Z,8.65
2023-01-13T18:10:01.183Z,8.65
2023-01-13T18:11:01.173Z,8.65
2023-01-13T18:12:01.154Z,8.66
2023-01-13T18:13:01.155Z,8.68
2023-01-13T18:14:01.162Z,8.71
2023-01-13T18:15:01.110Z,8.69
2023-01-13T18:16:01.102Z,8.69
2023-01-13T18:17:01.180Z,8.69
2023-01-13T18:18:01.078Z,8.72
2023-01-13T18:19:01.058Z,8.71
2023-01-13T18:20:01.041Z,8.68
2023-01-13T18:21:01.029Z,8.68
2023-01-13T18:22:01.023Z,8.65
2023-01-13T18:23:01.024Z,8.63
2023-01-13T18:24:01.007Z,8.63
2023-01-13T18:25:00.984Z,8.60
2023-01-13T18:26:00.961Z,8.60
2023-01-13T18:27:00.964Z,8.57
2023-01-13T18:28:00.967Z,8.58
2023-01-13T18:29:00.936Z,8.58
2023-01-13T18:30:00.921Z,8.57
2023-01-13T18:31:00.963Z,8.57
2023-01-13T18:32:00.886Z,8.55